createdAt,value
2022-12-18T08:03:22.618Z,21.30
2022-12-18T08:06:09.276Z,23.30
2022-12-18T08:08:41.743Z,16.40
2022-12-18T08:11:20.016Z,21.70
2022-12-18T08:13:58.090Z,25.10
2022-12-18T08:16:28.391Z,20.20
2022-12-18T08:19:04.823Z,18.30
2022-12-18T08:21:37.748Z,21.20
2022-12-18T08:24:11.477Z,20.30
2022-12-18T08:26:45.570Z,22.50
2022-12-18T08:29:22.213Z,29.10
2022-12-18T08:31:53.486Z,23.80
2022-12-18T08:34:23.981Z,29.40
2022-12-18T08:36:58.144Z,24.90
2022-12-18T08:39:35.031Z,20.50
2022-12-18T08:42:25.869Z,16.40
2022-12-18T08:44:53.875Z,19.00
2022-12-18T08:47:20.628Z,17.00
2022-12-18T08:49:50.658Z,23.60
2022-12-18T08:52:22.873Z,23.50
2022-12-18T08:54:55.549Z,17.40
2022-12-18T08:57:25.795Z,22.30
2022-12-18T08:59:56.717Z,22.30
2022-12-18T09:02:39.754Z,21.60
2022-12-18T09:05:16.863Z,17.60
2022-12-18T09:07:47.376Z,16.40
2022-12-18T09:10:31.275Z,19.60
2022-12-18T09:13:01.899Z,14.90
2022-12-18T09:15:50.063Z,16.10
2022-12-18T09:18:25.099Z,20.20
2022-12-18T09:20:56.484Z,18.40
2022-12-18T09:23:40.381Z,20.10
2022-12-18T09:26:07.558Z,21.50
2022-12-18T09:28:37.663Z,27.80
2022-12-18T09:31:07.672Z,17.90
2022-12-18T09:33:42.583Z,22.80
2022-12-18T09:36:11.796Z,17.40
2022-12-18T09:38:39.338Z,19.60
2022-12-18T09:41:24.526Z,15.30
2022-12-18T09:43:57.172Z,24.00
2022-12-18T09:46:30.780Z,19.80
2022-12-18T09:49:03.353Z,20.20
2022-12-18T09:51:47.100Z,15.30
2022-12-18T09:54:24.378Z,17.00
2022-12-18T09:56:52.750Z,11.80
2022-12-18T09:59:48.758Z,12.70
2022-12-18T10:02:28.308Z,17.20
2022-12-18T10:05:43.759Z,9.00
2022-12-18T10:08:39.891Z,9.70
2022-12-18T10:11:22.447Z,15.30
2022-12-18T10:14:06.636Z,13.20
2022-12-18T10:16:43.817Z,14.00
2022-12-18T10:19:29.090Z,15.10
2022-12-18T10:22:14.314Z,13.40
2022-12-18T10:25:05.626Z,19.30
2022-12-18T10:27:36.959Z,16.00
2022-12-18T10:30:17.184Z,8.60
2022-12-18T10:32:47.910Z,8.90
2022-12-18T10:35:27.265Z,11.60
2022-12-18T10:38:06.694Z,16.90
2022-12-18T10:40:55.348Z,9.90
2022-12-18T10:46:12.210Z,15.80
2022-12-18T10:48:53.466Z,11.10
2022-12-18T10:51:38.428Z,10.30
2022-12-18T10:54:25.638Z,14.80
2022-12-18T10:57:15.542Z,10.90
2022-12-18T10:59:52.975Z,12.00
2022-12-18T11:02:39.572Z,9.50
2022-12-18T11:05:32.730Z,13.90
2022-12-18T11:08:04.161Z,11.00
2022-12-18T11:10:41.229Z,9.70
2022-12-18T11:13:26.468Z,10.90
2022-12-18T11:15:57.338Z,12.60
2022-12-18T11:18:34.082Z,7.90
2022-12-18T11:21:09.850Z,10.90
2022-12-18T11:23:54.249Z,7.10
2022-12-18T11:26:22.164Z,11.80
2022-12-18T11:29:07.833Z,11.20
2022-12-18T11:31:34.561Z,9.50
2022-12-18T11:34:29.173Z,6.30
2022-12-18T11:37:00.056Z,6.50
2022-12-18T11:39:42.193Z,11.10
2022-12-18T11:42:22.117Z,6.50
2022-12-18T11:44:54.267Z,10.50
2022-12-18T11:47:49.451Z,11.00
2022-12-18T11:50:18.145Z,10.00
2022-12-18T11:52:45.491Z,13.90
2022-12-18T11:55:21.339Z,9.70
2022-12-18T11:58:20.204Z,12.10
2022-12-18T12:01:23.496Z,8.10
2022-12-18T12:03:53.393Z,8.40
2022-12-18T12:06:57.469Z,10.20
2022-12-18T12:09:47.994Z,12.70
2022-12-18T12:12:49.384Z,10.60
2022-12-18T12:15:31.803Z,11.60
2022-12-18T12:18:25.266Z,10.00
2022-12-18T12:21:04.450Z,10.40
2022-12-18T12:23:46.172Z,9.90
2022-12-18T12:26:26.453Z,8.00
2022-12-18T12:29:21.179Z,12.30
2022-12-18T12:32:19.994Z,10.30
2022-12-18T12:35:00.837Z,7.40
2022-12-18T12:37:50.453Z,8.00
2022-12-18T12:40:51.305Z,10.50
2022-12-18T12:43:35.825Z,10.90
2022-12-18T12:46:07.408Z,7.70
2022-12-18T12:48:47.745Z,10.70
2022-12-18T12:51:28.888Z,8.60
2022-12-18T12:53:58.393Z,10.30
2022-12-18T12:56:52.839Z,9.10
2022-12-18T12:59:49.056Z,9.80
2022-12-18T13:03:10.040Z,10.60
2022-12-18T13:05:57.979Z,23.20
2022-12-18T13:08:35.272Z,11.80
2022-12-18T13:11:21.048Z,12.90
2022-12-18T13:13:54.302Z,10.90
2022-12-18T13:16:24.364Z,10.20
2022-12-18T13:19:05.580Z,7.60
2022-12-18T13:21:34.913Z,10.50
2022-12-18T13:24:37.225Z,8.20
2022-12-18T13:27:47.050Z,7.90
2022-12-18T13:30:32.592Z,10.00
2022-12-18T13:33:25.381Z,12.40
2022-12-18T13:36:03.350Z,8.60
2022-12-18T13:38:34.137Z,9.10
2022-12-18T13:41:19.206Z,10.20
2022-12-18T13:43:48.857Z,10.20
2022-12-18T13:46:20.479Z,8.50
2022-12-18T13:49:01.773Z,11.60
2022-12-18T13:51:31.247Z,9.30
2022-12-18T13:54:01.449Z,11.90
2022-12-18T13:56:31.241Z,11.00
2022-12-18T13:59:22.878Z,12.60
2022-12-18T14:02:15.738Z,16.50
2022-12-18T14:04:46.326Z,15.10
2022-12-18T14:07:20.048Z,16.90
2022-12-18T14:09:55.626Z,17.60
2022-12-18T14:12:50.993Z,13.60
2022-12-18T14:15:48.442Z,11.20
2022-12-18T14:18:22.158Z,17.00
2022-12-18T14:20:53.409Z,17.10
2022-12-18T14:23:33.714Z,18.60
2022-12-18T14:26:28.402Z,12.60
2022-12-18T14:29:23.206Z,14.50
2022-12-18T14:32:18.346Z,16.60
2022-12-18T14:34:54.919Z,17.60
2022-12-18T14:40:13.986Z,17.50
2022-12-18T14:43:12.504Z,20.10
2022-12-18T14:45:56.172Z,27.70
